Time;durP1;ratioP1;P1;durP2;ratioP2;P2;SDS_P1;SDS_P2;PMS_P1;PMS_P2;Temp;Humidity;BMP_temperature;BMP_pressure;BME280_temperature;BME280_humidity;BME280_pressure;Samples;Min_cycle;Max_cycle;Signal;HPM_P1;HPM_P2
2022/09/03 00:00:00;;;;;;;;;;;;;;;13.70;74.63;100343.50;4986469;28;1364;-81
2022/09/03 00:02:35;;;;;;;;;;;;;;;13.66;72.57;100335.06;4985341;28;1437;-81
2022/09/03 00:05:19;;;;;;;;;;;;;;;13.84;72.42;100341.56;4968386;28;1345;-81
2022/09/03 00:07:48;;;;;;;;;;;;;;;13.81;72.34;100331.97;4987675;28;1422;-82
2022/09/03 00:10:29;;;;;;;;;;;;;;;13.98;72.62;100334.94;4982680;28;1602;-81
2022/09/03 00:12:56;;;;;;;;;;;;;;;14.01;73.27;100328.00;4980854;28;1594;-82
2022/09/03 00:15:22;;;;;;;;;;;;;;;13.88;74.18;100337.06;4961550;28;1641;-80
2022/09/03 00:17:53;;;;;;;;;;;;;;;13.96;74.28;100336.34;4971883;28;1899;-81
2022/09/03 00:20:30;;;;;;;;;;;;;;;13.99;73.90;100333.81;4991979;28;1664;-81
2022/09/03 00:22:57;;;;;;;;;;;;;;;13.92;73.17;100330.66;4975446;28;1417;-80
2022/09/03 00:25:29;;;;;;;;;;;;;;;14.09;71.04;100337.47;4984852;28;1361;-80
2022/09/03 00:27:56;;;;;;;;;;;;;;;13.86;71.97;100329.16;4988845;28;1480;-82
2022/09/03 00:30:23;;;;;;;;;;;;;;;14.03;71.56;100329.31;4995689;28;1546;-81
2022/09/03 00:32:51;;;;;;;;;;;;;;;14.33;68.92;100327.03;4984241;28;1497;-82
2022/09/03 00:35:23;;;;;;;;;;;;;;;14.32;71.40;100325.41;5001349;28;1690;-82
2022/09/03 00:37:49;;;;;;;;;;;;;;;14.34;70.04;100317.66;4981680;28;1969;-81
2022/09/03 00:40:21;;;;;;;;;;;;;;;14.28;70.22;100316.16;5006444;28;1579;-82
2022/09/03 00:42:57;;;;;;;;;;;;;;;14.32;69.03;100317.97;4984336;28;1459;-81
2022/09/03 00:45:37;;;;;;;;;;;;;;;14.37;70.18;100325.31;4969133;28;1402;-82
2022/09/03 00:48:08;;;;;;;;;;;;;;;14.44;67.97;100322.16;4988395;28;1605;-82
2022/09/03 00:50:49;;;;;;;;;;;;;;;14.57;67.14;100315.75;4987593;28;1442;-80
2022/09/03 00:53:29;;;;;;;;;;;;;;;14.59;68.03;100314.34;4974493;28;1755;-80
2022/09/03 00:56:02;;;;;;;;;;;;;;;14.68;65.11;100320.72;4977933;28;1712;-80
2022/09/03 00:58:46;;;;;;;;;;;;;;;14.77;65.66;100318.88;4976503;28;1895;-80
2022/09/03 01:01:19;;;;;;;;;;;;;;;14.74;66.35;100319.47;4986214;28;1414;-80
2022/09/03 01:04:05;;;;;;;;;;;;;;;14.71;65.75;100328.38;4980160;28;1465;-82
2022/09/03 01:06:39;;;;;;;;;;;;;;;14.71;66.06;100322.06;4985364;28;1582;-81
2022/09/03 01:09:22;;;;;;;;;;;;;;;14.73;65.78;100320.59;4990902;28;1087;-82
2022/09/03 01:11:58;;;;;;;;;;;;;;;14.72;66.85;100316.22;4983659;28;1485;-82
2022/09/03 01:14:33;;;;;;;;;;;;;;;14.70;65.93;100323.19;4979517;28;1357;-82
2022/09/03 01:17:03;;;;;;;;;;;;;;;14.70;66.84;100315.72;4980123;28;1891;-82
2022/09/03 01:19:46;;;;;;;;;;;;;;;14.69;65.90;100316.84;4984380;28;1501;-82
2022/09/03 01:22:23;;;;;;;;;;;;;;;14.68;67.05;100317.97;4977504;28;1416;-82
2022/09/03 01:25:10;;;;;;;;;;;;;;;14.66;66.81;100327.66;4985792;28;1567;-82
2022/09/03 01:27:42;;;;;;;;;;;;;;;14.64;66.47;100329.91;4994381;28;1520;-82
2022/09/03 01:30:11;;;;;;;;;;;;;;;14.64;67.34;100325.22;4975627;28;1613;-82
2022/09/03 01:32:47;;;;;;;;;;;;;;;14.64;66.98;100325.22;4990735;28;1134;-82
2022/09/03 01:35:18;;;;;;;;;;;;;;;14.64;66.49;100318.91;4979205;28;1615;-82
2022/09/03 01:38:01;;;;;;;;;;;;;;;14.62;66.43;100322.00;4982632;28;1902;-82
2022/09/03 01:40:34;;;;;;;;;;;;;;;14.62;67.03;100313.72;4977409;28;1554;-82
2022/09/03 01:43:14;;;;;;;;;;;;;;;14.61;67.08;100316.78;4972737;28;1371;-81
2022/09/03 01:45:50;;;;;;;;;;;;;;;14.56;66.78;100323.22;4979383;28;1398;-82
2022/09/03 01:48:34;;;;;;;;;;;;;;;14.56;67.32;100323.22;4997571;28;1387;-82
2022/09/03 01:51:18;;;;;;;;;;;;;;;14.55;66.85;100326.28;4961513;28;976;-82
2022/09/03 01:54:00;;;;;;;;;;;;;;;14.54;67.08;100331.00;4975091;28;1782;-81
2022/09/03 01:56:44;;;;;;;;;;;;;;;14.51;68.10;100337.13;4998442;28;1425;-81
2022/09/03 01:59:20;;;;;;;;;;;;;;;14.48;69.10;100325.91;4981700;28;1886;-83
2022/09/03 02:01:48;;;;;;;;;;;;;;;14.45;67.87;100332.03;4983393;28;1515;-82
2022/09/03 02:04:22;;;;;;;;;;;;;;;14.46;67.68;100328.94;4989987;28;1089;-82
2022/09/03 02:06:47;;;;;;;;;;;;;;;14.47;68.22;100327.84;4978314;28;1391;-81
2022/09/03 02:09:13;;;;;;;;;;;;;;;14.48;68.34;100331.41;4986870;28;1407;-81
2022/09/03 02:11:38;;;;;;;;;;;;;;;14.47;67.09;100327.84;4984446;28;1138;-81
2022/09/03 02:14:04;;;;;;;;;;;;;;;14.43;67.54;100321.31;4978106;28;1279;-80
2022/09/03 02:16:30;;;;;;;;;;;;;;;14.43;68.61;100323.28;4984863;28;1593;-82
2022/09/03 02:19:02;;;;;;;;;;;;;;;14.38;70.55;100335.16;4983167;28;1886;-81
2022/09/03 02:21:32;;;;;;;;;;;;;;;14.28;70.65;100332.66;4996811;28;1599;-81
2022/09/03 02:23:57;;;;;;;;;;;;;;;14.25;70.93;100338.78;4983804;28;1401;-81
2022/09/03 02:26:23;;;;;;;;;;;;;;;14.24;69.84;100335.22;4985831;28;1548;-81
2022/09/03 02:28:48;;;;;;;;;;;;;;;14.25;70.23;100336.03;4993444;28;1331;-80
2022/09/03 02:31:13;;;;;;;;;;;;;;;14.23;69.30;100335.50;4989619;28;1559;-79
2022/09/03 02:33:41;;;;;;;;;;;;;;;14.22;69.67;100326.44;4986190;28;1288;-81
2022/09/03 02:36:07;;;;;;;;;;;;;;;14.23;69.41;100325.31;5000351;28;1735;-81
2022/09/03 02:38:33;;;;;;;;;;;;;;;14.22;69.50;100328.38;4981781;28;1894;-81
2022/09/03 02:40:58;;;;;;;;;;;;;;;14.20;69.80;100331.47;4978819;28;1437;-82
2022/09/03 02:43:49;;;;;;;;;;;;;;;14.17;71.17;100328.50;4978863;28;993;-82
2022/09/03 02:46:17;;;;;;;;;;;;;;;14.11;71.16;100330.56;4958944;28;1489;-82
2022/09/03 02:48:42;;;;;;;;;;;;;;;14.05;72.42;100330.94;4993764;28;1723;-80
2022/09/03 02:51:07;;;;;;;;;;;;;;;13.85;73.04;100329.44;4987268;28;1632;-80
2022/09/03 02:53:32;;;;;;;;;;;;;;;13.74;73.12;100328.03;4991635;28;1739;-80
2022/09/03 02:55:58;;;;;;;;;;;;;;;13.61;74.12;100329.63;4976078;28;1715;-80
2022/09/03 02:58:24;;;;;;;;;;;;;;;13.54;75.60;100326.47;4976548;28;1952;-80
2022/09/03 03:00:49;;;;;;;;;;;;;;;13.50;75.35;100322.72;4976978;28;1370;-80
2022/09/03 03:03:14;;;;;;;;;;;;;;;13.40;74.94;100322.91;4986317;28;1349;-81
2022/09/03 03:05:42;;;;;;;;;;;;;;;13.35;75.65;100331.25;4976536;28;1422;-80
2022/09/03 03:08:08;;;;;;;;;;;;;;;13.29;74.19;100322.25;4996898;28;1430;-80
2022/09/03 03:10:34;;;;;;;;;;;;;;;13.33;73.87;100328.81;4986873;28;1600;-82
2022/09/03 03:12:59;;;;;;;;;;;;;;;13.06;76.55;100326.78;4986328;28;1266;-80
2022/09/03 03:15:25;;;;;;;;;;;;;;;13.16;75.92;100312.06;4991792;28;1355;-80
2022/09/03 03:17:50;;;;;;;;;;;;;;;13.19;74.76;100327.94;4979955;28;1894;-80
2022/09/03 03:20:15;;;;;;;;;;;;;;;13.26;73.17;100317.38;4984530;28;1421;-81
2022/09/03 03:22:40;;;;;;;;;;;;;;;13.27;74.26;100322.56;4979938;28;1302;-82
2022/09/03 03:25:05;;;;;;;;;;;;;;;13.20;74.62;100327.66;4972548;28;1399;-82
2022/09/03 03:27:31;;;;;;;;;;;;;;;12.92;75.47;100325.09;4966822;28;1851;-81
2022/09/03 03:29:56;;;;;;;;;;;;;;;13.01;76.14;100326.88;4985864;28;1279;-82
2022/09/03 03:32:22;;;;;;;;;;;;;;;13.07;75.82;100327.59;4971823;28;1644;-80
2022/09/03 03:34:47;;;;;;;;;;;;;;;13.01;76.23;100321.38;4965447;28;1359;-80
2022/09/03 03:37:12;;;;;;;;;;;;;;;13.06;76.22;100323.19;4978659;28;1937;-81
2022/09/03 03:39:38;;;;;;;;;;;;;;;12.95;77.09;100330.78;4991831;28;1511;-81
2022/09/03 03:42:03;;;;;;;;;;;;;;;12.90;76.73;100325.41;4979942;28;1695;-82
2022/09/03 03:44:28;;;;;;;;;;;;;;;12.89;76.93;100329.25;5001268;28;1446;-81
2022/09/03 03:46:53;;;;;;;;;;;;;;;12.86;77.35;100333.41;4980518;28;1402;-80
2022/09/03 03:49:18;;;;;;;;;;;;;;;12.73;76.52;100333.38;4985091;28;1433;-80
2022/09/03 03:51:43;;;;;;;;;;;;;;;12.79;76.44;100329.41;4978523;28;1252;-81
2022/09/03 03:54:09;;;;;;;;;;;;;;;12.80;77.12;100322.81;4978722;28;1478;-81
2022/09/03 03:56:34;;;;;;;;;;;;;;;12.69;77.50;100329.56;4995745;28;1299;-81
2022/09/03 03:58:59;;;;;;;;;;;;;;;12.64;77.79;100324.19;4997180;28;1959;-81
2022/09/03 04:01:25;;;;;;;;;;;;;;;12.56;77.60;100335.84;4989940;28;1387;-81
2022/09/03 04:03:51;;;;;;;;;;;;;;;12.57;78.23;100331.97;5000145;28;1790;-81
2022/09/03 04:06:17;;;;;;;;;;;;;;;12.48;77.51;100335.41;4986198;28;1830;-81
2022/09/03 04:08:43;;;;;;;;;;;;;;;12.55;78.07;100328.69;4984920;28;1620;-82
2022/09/03 04:11:10;;;;;;;;;;;;;;;12.51;78.14;100325.72;4994981;28;976;-82
2022/09/03 04:13:36;;;;;;;;;;;;;;;12.51;78.08;100331.22;4982798;28;1351;-82
2022/09/03 04:16:01;;;;;;;;;;;;;;;12.27;80.24;100327.72;4981899;28;1470;-82
2022/09/03 04:18:27;;;;;;;;;;;;;;;12.41;78.55;100318.47;4992369;28;1968;-81
2022/09/03 04:20:52;;;;;;;;;;;;;;;12.46;79.49;100315.66;4983389;28;1410;-80
2022/09/03 04:23:17;;;;;;;;;;;;;;;12.36;78.91;100320.47;4986339;28;1420;-81
2022/09/03 04:25:43;;;;;;;;;;;;;;;12.32;79.28;100320.25;4988106;28;1350;-81
2022/09/03 04:28:08;;;;;;;;;;;;;;;12.30;79.50;100317.00;4971451;28;1417;-81
2022/09/03 04:30:34;;;;;;;;;;;;;;;12.24;79.24;100325.59;4995200;28;1472;-81
2022/09/03 04:32:59;;;;;;;;;;;;;;;12.26;79.52;100329.66;4980039;28;1450;-81
2022/09/03 04:35:30;;;;;;;;;;;;;;;12.30;80.02;100327.16;4977078;28;1548;-82
2022/09/03 04:37:56;;;;;;;;;;;;;;;12.24;79.33;100325.59;4976508;28;1910;-82
2022/09/03 04:40:21;;;;;;;;;;;;;;;12.29;79.94;100325.50;4988180;28;1354;-82
2022/09/03 04:42:46;;;;;;;;;;;;;;;12.21;79.73;100321.50;4981140;28;1357;-81
2022/09/03 04:45:17;;;;;;;;;;;;;;;12.15;79.71;100321.88;4985977;28;1339;-81
2022/09/03 04:47:42;;;;;;;;;;;;;;;12.17;80.18;100322.38;4978527;28;1372;-80
2022/09/03 04:50:08;;;;;;;;;;;;;;;12.15;79.97;100319.97;4980020;28;1326;-80
2022/09/03 04:52:33;;;;;;;;;;;;;;;12.12;80.09;100315.88;4996868;28;1932;-82
2022/09/03 04:54:58;;;;;;;;;;;;;;;12.21;79.82;100321.50;4995173;28;1520;-82
2022/09/03 04:57:23;;;;;;;;;;;;;;;12.20;79.73;100314.38;4989272;28;1906;-82
2022/09/03 04:59:48;;;;;;;;;;;;;;;12.19;80.04;100320.97;4980343;28;1409;-82
2022/09/03 05:02:14;;;;;;;;;;;;;;;12.06;80.33;100313.50;4978883;28;1434;-80
2022/09/03 05:04:39;;;;;;;;;;;;;;;11.89;81.05;100316.72;4983482;28;1361;-80
2022/09/03 05:07:04;;;;;;;;;;;;;;;12.01;80.70;100321.78;4984226;28;1604;-80
2022/09/03 05:09:29;;;;;;;;;;;;;;;12.07;80.37;100323.34;4980870;28;1199;-81
2022/09/03 05:11:55;;;;;;;;;;;;;;;11.88;80.57;100326.06;4988417;28;1802;-81
2022/09/03 05:14:20;;;;;;;;;;;;;;;11.97;80.56;100329.78;4990094;28;1391;-80
2022/09/03 05:16:45;;;;;;;;;;;;;;;12.10;80.38;100328.22;4981077;28;1755;-82
2022/09/03 05:19:11;;;;;;;;;;;;;;;12.13;80.26;100325.72;4998155;28;1934;-81
2022/09/03 05:21:36;;;;;;;;;;;;;;;12.16;80.68;100327.06;4983526;28;1307;-82
2022/09/03 05:24:02;;;;;;;;;;;;;;;12.20;80.81;100330.03;4984432;28;1417;-82
2022/09/03 05:26:32;;;;;;;;;;;;;;;12.26;80.82;100328.84;4998672;28;1453;-82
2022/09/03 05:28:58;;;;;;;;;;;;;;;12.32;80.34;100322.19;4998970;28;1491;-82
2022/09/03 05:31:25;;;;;;;;;;;;;;;12.19;80.06;100329.22;4989263;28;1878;-82
2022/09/03 05:33:51;;;;;;;;;;;;;;;12.20;80.66;100327.28;4987156;28;1142;-82
2022/09/03 05:36:18;;;;;;;;;;;;;;;12.33;80.39;100321.06;4977895;28;1457;-81
2022/09/03 05:38:43;;;;;;;;;;;;;;;12.41;80.45;100317.66;4983370;28;1906;-83
2022/09/03 05:41:10;;;;;;;;;;;;;;;12.41;80.19;100326.72;4989140;28;1762;-85
2022/09/03 05:43:35;;;;;;;;;;;;;;;12.46;80.68;100326.63;4999895;28;1695;-85
2022/09/03 05:46:05;;;;;;;;;;;;;;;12.42;81.05;100325.56;4978016;28;1628;-85
2022/09/03 05:48:32;;;;;;;;;;;;;;;12.37;81.42;100322.91;4993641;28;1472;-85
2022/09/03 05:51:17;;;;;;;;;;;;;;;12.42;80.69;100319.28;4981720;28;854;-84
2022/09/03 05:53:43;;;;;;;;;;;;;;;12.49;80.52;100317.81;4981971;28;855;-85
2022/09/03 05:56:13;;;;;;;;;;;;;;;12.58;80.40;100311.66;4980845;28;1046;-84
2022/09/03 05:58:40;;;;;;;;;;;;;;;12.70;81.59;100325.72;4981952;28;1954;-85
2022/09/03 06:01:25;;;;;;;;;;;;;;;12.52;82.10;100319.13;4977236;28;1539;-84
2022/09/03 06:03:54;;;;;;;;;;;;;;;12.65;81.80;100323.88;4981039;28;1045;-85
2022/09/03 06:06:24;;;;;;;;;;;;;;;12.64;82.68;100322.25;5003698;28;1421;-84
2022/09/03 06:08:50;;;;;;;;;;;;;;;12.70;82.17;100326.53;5000644;28;1312;-84
2022/09/03 06:11:15;;;;;;;;;;;;;;;12.52;82.25;100325.44;4979640;28;1350;-84
2022/09/03 06:13:40;;;;;;;;;;;;;;;12.67;81.64;100331.81;4994909;28;1410;-83
2022/09/03 06:16:06;;;;;;;;;;;;;;;12.81;81.25;100328.00;4982329;28;866;-83
2022/09/03 06:18:31;;;;;;;;;;;;;;;12.90;82.71;100319.91;4982105;28;1939;-84
2022/09/03 06:20:57;;;;;;;;;;;;;;;12.92;83.51;100312.19;4981760;28;1562;-84
2022/09/03 06:23:23;;;;;;;;;;;;;;;12.97;83.54;100320.34;4996674;28;1330;-83
2022/09/03 06:25:58;;;;;;;;;;;;;;;12.94;83.55;100314.59;4991069;28;1278;-84
2022/09/03 06:28:25;;;;;;;;;;;;;;;12.98;83.41;100316.47;5002461;28;1511;-85
2022/09/03 06:30:51;;;;;;;;;;;;;;;13.07;84.34;100316.59;4983804;28;2105;-84
2022/09/03 06:33:17;;;;;;;;;;;;;;;13.16;84.81;100323.06;4983090;28;1515;-83
2022/09/03 06:35:42;;;;;;;;;;;;;;;13.24;85.70;100323.19;5003034;28;1347;-83
2022/09/03 06:38:09;;;;;;;;;;;;;;;13.27;85.29;100320.97;4981065;28;1965;-84
2022/09/03 06:40:34;;;;;;;;;;;;;;;13.33;85.25;100317.81;4981745;28;1441;-84
2022/09/03 06:43:01;;;;;;;;;;;;;;;13.41;86.18;100321.78;4976165;28;1652;-82
2022/09/03 06:45:27;;;;;;;;;;;;;;;13.51;85.75;100322.41;4980607;28;1222;-84
2022/09/03 06:47:54;;;;;;;;;;;;;;;13.58;86.38;100319.25;4996750;28;1747;-84
2022/09/03 06:50:19;;;;;;;;;;;;;;;13.62;86.36;100312.81;4995479;28;1236;-84
2022/09/03 06:52:49;;;;;;;;;;;;;;;13.72;86.49;100324.75;4988746;28;1429;-85
2022/09/03 06:55:14;;;;;;;;;;;;;;;13.81;84.64;100314.66;5002152;28;1321;-84
2022/09/03 06:57:39;;;;;;;;;;;;;;;13.91;83.89;100330.97;4979839;28;1974;-85
2022/09/03 07:00:05;;;;;;;;;;;;;;;13.98;82.33;100328.63;4993506;28;1381;-85
2022/09/03 07:02:31;;;;;;;;;;;;;;;14.00;81.45;100327.19;4989337;28;1401;-84
2022/09/03 07:04:56;;;;;;;;;;;;;;;13.99;81.23;100322.00;4979632;28;1231;-84
2022/09/03 07:07:21;;;;;;;;;;;;;;;14.11;78.38;100324.22;4976327;28;1514;-83
2022/09/03 07:09:46;;;;;;;;;;;;;;;14.21;76.86;100319.28;4982344;28;1218;-84
2022/09/03 07:12:14;;;;;;;;;;;;;;;14.23;77.27;100330.00;4988570;28;1601;-83
2022/09/03 07:14:39;;;;;;;;;;;;;;;14.25;76.41;100323.06;4988764;28;1249;-83
2022/09/03 07:17:04;;;;;;;;;;;;;;;14.27;76.30;100320.84;4986147;28;1883;-84
2022/09/03 07:19:30;;;;;;;;;;;;;;;14.32;76.83;100325.41;4984238;28;1584;-83
2022/09/03 07:21:55;;;;;;;;;;;;;;;14.36;76.79;100323.66;4978353;28;2005;-83
2022/09/03 07:24:20;;;;;;;;;;;;;;;14.38;77.11;100319.50;4994083;28;1348;-84
2022/09/03 07:26:47;;;;;;;;;;;;;;;14.43;76.40;100315.00;4997756;28;1330;-82
2022/09/03 07:29:14;;;;;;;;;;;;;;;14.42;75.20;100305.94;4998599;28;1130;-84
2022/09/03 07:31:40;;;;;;;;;;;;;;;14.48;75.52;100312.13;4998384;28;1398;-82
2022/09/03 07:34:06;;;;;;;;;;;;;;;14.55;75.03;100315.25;5006475;28;1961;-84
2022/09/03 07:36:37;;;;;;;;;;;;;;;14.63;75.65;100314.53;5010266;28;1334;-83
2022/09/03 07:39:03;;;;;;;;;;;;;;;14.71;74.23;100316.56;4981512;28;1890;-83
2022/09/03 07:41:30;;;;;;;;;;;;;;;14.70;75.01;100318.50;4995723;28;1708;-83
2022/09/03 07:43:55;;;;;;;;;;;;;;;14.76;74.01;100311.72;5000316;28;1681;-84
2022/09/03 07:46:22;;;;;;;;;;;;;;;14.83;75.51;100321.47;5001136;28;1768;-85
2022/09/03 07:48:51;;;;;;;;;;;;;;;14.85;74.79;100311.78;4994322;28;1351;-84
2022/09/03 07:51:17;;;;;;;;;;;;;;;14.79;74.82;100303.97;5003997;28;1538;-84
2022/09/03 07:53:46;;;;;;;;;;;;;;;14.81;75.48;100305.25;4986048;28;1534;-83
2022/09/03 07:56:12;;;;;;;;;;;;;;;14.82;76.24;100297.81;4986987;28;1592;-85
2022/09/03 07:58:37;;;;;;;;;;;;;;;14.83;76.57;100308.53;4989857;28;1867;-85
2022/09/03 08:01:07;;;;;;;;;;;;;;;14.96;75.77;100307.66;4985020;28;1358;-82
2022/09/03 08:03:32;;;;;;;;;;;;;;;15.04;74.78;100304.13;4989389;28;1635;-85
2022/09/03 08:06:02;;;;;;;;;;;;;;;15.06;75.29;100306.56;4999037;28;1002;-84
2022/09/03 08:08:27;;;;;;;;;;;;;;;15.08;76.16;100312.56;5000191;28;1240;-84
2022/09/03 08:10:52;;;;;;;;;;;;;;;15.11;75.00;100311.97;4983095;28;1318;-84
2022/09/03 08:13:18;;;;;;;;;;;;;;;15.11;74.80;100317.47;5004507;28;1806;-83
2022/09/03 08:15:43;;;;;;;;;;;;;;;15.20;73.55;100320.28;4984702;28;883;-83
2022/09/03 08:18:09;;;;;;;;;;;;;;;15.22;73.85;100318.84;4999933;28;1870;-84
2022/09/03 08:20:36;;;;;;;;;;;;;;;15.32;74.09;100324.06;4983268;28;1240;-82
2022/09/03 08:23:01;;;;;;;;;;;;;;;15.43;75.06;100317.16;4981631;28;1333;-84
2022/09/03 08:25:28;;;;;;;;;;;;;;;15.46;74.40;100315.72;5013470;28;1369;-83
2022/09/03 08:27:53;;;;;;;;;;;;;;;15.47;74.43;100309.88;4999302;28;1642;-84
2022/09/03 08:30:20;;;;;;;;;;;;;;;15.52;73.34;100308.91;4983474;28;1057;-84
2022/09/03 08:32:45;;;;;;;;;;;;;;;15.57;73.28;100308.00;4972297;28;1339;-83
2022/09/03 08:35:10;;;;;;;;;;;;;;;15.61;73.12;100309.00;4977990;28;1667;-84
2022/09/03 08:37:35;;;;;;;;;;;;;;;15.60;73.43;100312.88;4978936;28;1959;-83
2022/09/03 08:40:02;;;;;;;;;;;;;;;15.65;72.54;100313.53;4981986;28;1634;-83
2022/09/03 08:42:27;;;;;;;;;;;;;;;15.68;72.83;100317.63;4982234;28;1349;-82
2022/09/03 08:44:55;;;;;;;;;;;;;;;15.72;72.83;100316.66;4990349;28;1478;-84
2022/09/03 08:47:59;;;;;;;;;;;;;;;15.78;73.39;100311.81;4984103;28;1508;-83
2022/09/03 08:50:29;;;;;;;;;;;;;;;15.91;71.62;100319.16;4978373;28;1597;-83
2022/09/03 08:53:01;;;;;;;;;;;;;;;15.93;72.04;100324.34;4977556;28;1578;-85
2022/09/03 08:55:46;;;;;;;;;;;;;;;16.03;72.37;100319.34;4976201;28;1295;-85
2022/09/03 08:58:13;;;;;;;;;;;;;;;16.29;70.56;100311.13;4987692;28;1898;-83
2022/09/03 09:00:40;;;;;;;;;;;;;;;16.32;70.14;100320.72;4980875;28;1600;-85
2022/09/03 09:03:24;;;;;;;;;;;;;;;16.31;70.52;100321.84;4986280;28;1624;-85
2022/09/03 09:06:06;;;;;;;;;;;;;;;16.24;71.11;100314.03;4983979;28;1331;-84
2022/09/03 09:08:39;;;;;;;;;;;;;;;16.27;70.90;100318.91;4982861;28;1393;-85
2022/09/03 09:11:18;;;;;;;;;;;;;;;16.34;71.45;100321.19;4990452;28;1095;-86
2022/09/03 09:14:06;;;;;;;;;;;;;;;16.40;71.17;100312.44;4957466;28;1272;-86
2022/09/03 09:16:49;;;;;;;;;;;;;;;16.40;70.99;100308.84;4957958;29;1009;-85
2022/09/03 09:19:26;;;;;;;;;;;;;;;16.46;71.15;100313.09;4958246;28;1965;-84
2022/09/03 09:21:54;;;;;;;;;;;;;;;16.52;71.04;100307.06;4973055;28;1216;-85
2022/09/03 09:24:25;;;;;;;;;;;;;;;16.61;70.67;100304.34;4958452;29;1005;-85
2022/09/03 09:27:01;;;;;;;;;;;;;;;16.63;71.55;100302.88;4972448;28;1271;-86
2022/09/03 09:29:28;;;;;;;;;;;;;;;16.79;70.15;100296.84;4972885;28;1304;-86
2022/09/03 09:31:53;;;;;;;;;;;;;;;16.80;69.82;100304.00;4965997;28;1522;-85
2022/09/03 09:34:18;;;;;;;;;;;;;;;16.61;70.38;100269.22;4992223;28;1472;-87
2022/09/03 09:36:47;;;;;;;;;;;;;;;16.73;69.38;100298.97;4984921;28;1521;-86
2022/09/03 09:39:14;;;;;;;;;;;;;;;16.82;70.34;100296.19;4971713;28;1902;-87
2022/09/03 09:41:40;;;;;;;;;;;;;;;16.83;69.54;100295.06;4976280;28;1443;-86
2022/09/03 09:44:05;;;;;;;;;;;;;;;16.94;69.87;100290.81;4991268;28;1535;-87
2022/09/03 09:46:38;;;;;;;;;;;;;;;17.00;68.74;100293.09;4977695;28;1642;-89
2022/09/03 09:49:17;;;;;;;;;;;;;;;17.04;68.97;100284.94;4990285;28;1964;-88
2022/09/03 09:51:42;;;;;;;;;;;;;;;17.06;68.53;100276.31;4972556;28;1627;-87
2022/09/03 09:54:17;;;;;;;;;;;;;;;17.17;67.17;100272.88;4993127;28;1873;-88
2022/09/03 09:56:43;;;;;;;;;;;;;;;17.39;65.82;100272.63;5006079;28;1432;-85
2022/09/03 09:59:09;;;;;;;;;;;;;;;17.34;66.46;100270.06;4983824;28;1902;-87
2022/09/03 10:01:42;;;;;;;;;;;;;;;17.40;66.52;100276.19;4988634;28;1771;-87
2022/09/03 10:04:12;;;;;;;;;;;;;;;17.45;66.47;100267.72;4998148;28;1503;-87
2022/09/03 10:06:53;;;;;;;;;;;;;;;17.49;66.01;100256.81;4985941;28;1930;-87
2022/09/03 10:09:20;;;;;;;;;;;;;;;17.58;65.31;100263.94;4994448;28;1285;-88
2022/09/03 10:11:50;;;;;;;;;;;;;;;17.53;65.75;100261.31;4984959;28;1540;-87
2022/09/03 10:14:32;;;;;;;;;;;;;;;17.58;63.94;100263.09;4972357;28;1514;-87
2022/09/03 10:17:03;;;;;;;;;;;;;;;17.56;65.31;100262.63;4963219;28;1403;-85
2022/09/03 10:19:42;;;;;;;;;;;;;;;17.51;64.41;100260.88;4978809;28;1907;-85
2022/09/03 10:22:11;;;;;;;;;;;;;;;17.57;66.62;100254.00;4981734;28;1625;-85
2022/09/03 10:24:51;;;;;;;;;;;;;;;17.59;66.14;100251.72;4984066;28;1573;-86
2022/09/03 10:27:17;;;;;;;;;;;;;;;17.72;66.51;100258.16;4976541;28;1419;-86
2022/09/03 10:29:42;;;;;;;;;;;;;;;17.77;66.02;100253.28;5005463;28;1651;-86
2022/09/03 10:32:21;;;;;;;;;;;;;;;17.81;65.17;100244.28;5003445;28;1331;-85
2022/09/03 10:35:09;;;;;;;;;;;;;;;17.87;64.95;100248.47;4983768;28;1570;-86
2022/09/03 10:37:42;;;;;;;;;;;;;;;17.84;63.79;100254.69;4980407;28;1902;-86
2022/09/03 10:40:29;;;;;;;;;;;;;;;17.88;63.92;100250.91;4987387;28;1560;-86
2022/09/03 10:42:55;;;;;;;;;;;;;;;17.88;63.92;100253.69;4980400;28;1889;-86
2022/09/03 10:45:33;;;;;;;;;;;;;;;17.96;65.42;100249.22;4970789;28;1559;-86
2022/09/03 10:47:58;;;;;;;;;;;;;;;17.98;65.65;100246.94;4977291;28;1713;-86
2022/09/03 10:50:30;;;;;;;;;;;;;;;18.01;65.09;100247.09;4975856;28;1708;-87
2022/09/03 10:53:04;;;;;;;;;;;;;;;18.01;65.12;100246.28;4976658;28;1507;-86
2022/09/03 10:55:35;;;;;;;;;;;;;;;18.19;63.77;100242.25;4977378;28;1554;-86
2022/09/03 10:58:00;;;;;;;;;;;;;;;18.21;64.72;100245.47;4974882;28;1947;-86
2022/09/03 11:00:29;;;;;;;;;;;;;;;18.25;64.04;100234.53;4975524;28;1560;-86
2022/09/03 11:02:54;;;;;;;;;;;;;;;18.25;64.66;100240.06;4980933;28;1413;-87
2022/09/03 11:05:20;;;;;;;;;;;;;;;18.30;62.99;100234.31;4985737;28;1534;-86
2022/09/03 11:07:48;;;;;;;;;;;;;;;18.34;63.79;100238.84;4984208;28;1548;-86
2022/09/03 11:10:39;;;;;;;;;;;;;;;18.36;62.94;100235.75;4980284;28;1373;-87
2022/09/03 11:13:08;;;;;;;;;;;;;;;18.39;64.81;100235.88;5003229;28;1354;-87
2022/09/03 11:15:47;;;;;;;;;;;;;;;18.43;63.39;100231.28;4985089;28;1309;-87
2022/09/03 11:18:12;;;;;;;;;;;;;;;18.45;64.79;100237.31;4991216;28;1981;-87
2022/09/03 11:20:37;;;;;;;;;;;;;;;18.53;63.91;100235.59;4977164;28;1621;-86
2022/09/03 11:23:05;;;;;;;;;;;;;;;18.54;63.50;100237.22;4993220;28;1350;-87
2022/09/03 11:25:33;;;;;;;;;;;;;;;18.79;64.17;100224.28;5000014;28;1562;-87
2022/09/03 11:28:11;;;;;;;;;;;;;;;18.81;63.58;100216.41;4985041;28;1397;-86
2022/09/03 11:31:00;;;;;;;;;;;;;;;18.78;62.83;100222.66;4977319;28;1308;-87
2022/09/03 11:33:25;;;;;;;;;;;;;;;18.73;62.98;100217.31;4974760;28;1468;-87
2022/09/03 11:35:59;;;;;;;;;;;;;;;18.76;62.42;100219.41;4978738;28;1440;-86
2022/09/03 11:38:27;;;;;;;;;;;;;;;18.77;62.58;100218.28;4979028;28;1972;-86
2022/09/03 11:41:02;;;;;;;;;;;;;;;18.85;61.50;100214.59;4979995;28;1586;-86
2022/09/03 11:43:29;;;;;;;;;;;;;;;18.82;62.36;100212.50;4982876;28;1589;-86
2022/09/03 11:46:01;;;;;;;;;;;;;;;18.93;62.66;100210.09;4975073;28;1743;-86
2022/09/03 11:48:38;;;;;;;;;;;;;;;18.93;62.72;100202.59;4995335;28;1738;-86
2022/09/03 11:51:03;;;;;;;;;;;;;;;18.98;63.30;100207.09;4982675;28;1859;-86
2022/09/03 11:53:35;;;;;;;;;;;;;;;19.05;61.46;100207.38;4982313;28;1503;-86
2022/09/03 11:56:03;;;;;;;;;;;;;;;19.06;62.87;100203.41;4983687;28;1646;-87
2022/09/03 11:58:33;;;;;;;;;;;;;;;19.08;61.57;100201.91;4988658;28;1941;-86
2022/09/03 12:01:04;;;;;;;;;;;;;;;19.17;60.71;100202.63;4976134;28;1557;-86
2022/09/03 12:03:37;;;;;;;;;;;;;;;19.24;61.63;100199.28;4993505;28;1624;-87
2022/09/03 12:06:20;;;;;;;;;;;;;;;19.27;60.25;100198.59;4981777;28;1666;-84
2022/09/03 12:08:56;;;;;;;;;;;;;;;19.37;60.51;100195.38;4982783;28;1657;-85
2022/09/03 12:11:44;;;;;;;;;;;;;;;19.54;60.95;100205.47;4980943;28;1569;-84
2022/09/03 12:14:19;;;;;;;;;;;;;;;19.56;59.78;100194.81;4984517;28;1510;-83
2022/09/03 12:16:53;;;;;;;;;;;;;;;19.56;59.98;100201.16;4991194;28;1550;-83
2022/09/03 12:19:24;;;;;;;;;;;;;;;19.76;58.94;100204.97;4986423;28;1898;-83
2022/09/03 12:21:49;;;;;;;;;;;;;;;19.85;58.71;100200.09;4996849;28;1636;-83
2022/09/03 12:24:16;;;;;;;;;;;;;;;19.99;58.29;100205.25;4981371;28;1925;-83
2022/09/03 12:26:41;;;;;;;;;;;;;;;20.20;58.21;100200.34;4981127;28;1314;-83
2022/09/03 12:29:16;;;;;;;;;;;;;;;20.27;57.06;100194.19;4981034;28;1481;-83
2022/09/03 12:31:43;;;;;;;;;;;;;;;20.25;56.05;100188.97;4989857;28;1640;-84
2022/09/03 12:34:10;;;;;;;;;;;;;;;20.43;57.46;100195.09;4993675;28;1524;-83
2022/09/03 12:36:43;;;;;;;;;;;;;;;20.39;57.20;100189.44;4981059;28;788;-83
2022/09/03 12:39:09;;;;;;;;;;;;;;;20.28;57.12;100187.47;4981481;28;1967;-84
2022/09/03 12:41:34;;;;;;;;;;;;;;;20.27;56.82;100183.88;4996383;28;1232;-83
2022/09/03 12:44:00;;;;;;;;;;;;;;;20.36;57.56;100189.31;4981453;28;804;-83
2022/09/03 12:46:26;;;;;;;;;;;;;;;20.41;57.93;100186.31;4980731;28;844;-83
2022/09/03 12:48:55;;;;;;;;;;;;;;;20.38;58.07;100185.03;4981068;28;1194;-83
2022/09/03 12:51:21;;;;;;;;;;;;;;;20.34;58.23;100189.69;4981332;28;929;-83
2022/09/03 12:53:47;;;;;;;;;;;;;;;20.32;59.10;100188.41;4981418;28;997;-84
2022/09/03 12:56:14;;;;;;;;;;;;;;;20.28;58.46;100182.72;4981613;28;899;-84
2022/09/03 12:58:48;;;;;;;;;;;;;;;20.27;57.58;100180.28;4981213;28;1915;-84